Time;durP1;ratioP1;P1;durP2;ratioP2;P2;SDS_P1;SDS_P2;PMS_P1;PMS_P2;Temp;Humidity;BMP_temperature;BMP_pressure;BME280_temperature;BME280_humidity;BME280_pressure;Samples;Min_cycle;Max_cycle;Signal;HPM_P1;HPM_P2
2022/06/12 00:00:48;;;;;;;9.63;5.72;;;18.40;99.90;;;;;;5039647;28;20161;-72
2022/06/12 00:03:16;;;;;;;7.65;5.50;;;18.30;99.90;;;;;;5037133;28;20232;-72
2022/06/12 00:05:46;;;;;;;7.32;5.70;;;18.30;99.90;;;;;;5037554;28;20247;-75
2022/06/12 00:08:12;;;;;;;7.75;5.38;;;18.30;99.90;;;;;;5038800;28;20165;-75
2022/06/12 00:10:41;;;;;;;8.13;5.25;;;18.30;99.90;;;;;;5033153;28;20192;-75
2022/06/12 00:13:10;;;;;;;10.30;5.25;;;18.40;99.90;;;;;;5018957;28;20235;-73
2022/06/12 00:15:35;;;;;;;6.95;5.20;;;18.40;99.90;;;;;;5020575;28;20221;-76
2022/06/12 00:18:01;;;;;;;6.97;5.18;;;18.50;99.90;;;;;;5027556;28;20166;-72
2022/06/12 00:20:28;;;;;;;7.97;5.05;;;18.40;99.90;;;;;;5032516;28;20233;-74
2022/06/12 00:22:54;;;;;;;8.90;5.93;;;18.30;99.90;;;;;;5029613;28;20172;-72
2022/06/12 00:25:21;;;;;;;7.85;5.53;;;18.20;99.90;;;;;;5032799;28;20177;-72
2022/06/12 00:27:47;;;;;;;10.93;5.65;;;18.00;99.90;;;;;;5039013;28;20250;-72
2022/06/12 00:30:17;;;;;;;9.80;5.90;;;18.00;99.90;;;;;;5040752;28;20250;-73
2022/06/12 00:32:46;;;;;;;7.72;5.80;;;17.90;99.90;;;;;;5040145;28;20251;-72
2022/06/12 00:35:14;;;;;;;8.98;5.47;;;17.80;99.90;;;;;;5038918;28;20208;-72
2022/06/12 00:37:40;;;;;;;7.28;5.18;;;17.90;99.90;;;;;;5039938;28;20157;-72
2022/06/12 00:40:06;;;;;;;6.90;5.38;;;17.90;99.90;;;;;;5040044;28;20252;-71
2022/06/12 00:42:39;;;;;;;6.88;5.22;;;18.00;99.90;;;;;;5040473;28;20241;-72
2022/06/12 00:45:47;;;;;;;8.43;5.55;;;18.00;99.90;;;;;;5040286;28;20173;-72
2022/06/12 00:48:23;;;;;;;6.70;5.80;;;17.80;99.90;;;;;;5040147;28;20501;-73
2022/06/12 00:50:55;;;;;;;7.50;5.57;;;17.70;99.90;;;;;;5040278;28;20160;-72
2022/06/12 00:53:27;;;;;;;7.90;5.35;;;17.50;99.90;;;;;;5040264;28;20167;-73
2022/06/12 00:55:55;;;;;;;7.50;4.97;;;17.50;99.90;;;;;;5039978;28;20542;-72
2022/06/12 00:58:25;;;;;;;10.43;4.85;;;17.70;99.90;;;;;;5039887;28;20161;-73
2022/06/12 01:00:52;;;;;;;6.95;5.00;;;17.70;99.90;;;;;;5039641;28;20510;-73
2022/06/12 01:03:18;;;;;;;7.32;5.20;;;17.70;99.90;;;;;;5039827;28;20220;-73
2022/06/12 01:08:45;;;;;;;6.00;5.15;;;17.60;99.90;;;;;;5017277;28;20181;-72
2022/06/12 01:11:14;;;;;;;6.95;5.18;;;17.60;99.90;;;;;;5034878;28;20205;-73
2022/06/12 01:13:44;;;;;;;10.15;5.13;;;17.70;99.90;;;;;;5039198;28;20195;-72
2022/06/12 01:16:18;;;;;;;9.30;5.30;;;17.70;99.90;;;;;;5039612;28;20191;-72
2022/06/12 01:18:49;;;;;;;8.93;5.38;;;17.60;99.90;;;;;;5039804;28;20165;-72
2022/06/12 01:21:51;;;;;;;7.50;5.18;;;17.40;99.90;;;;;;5042579;28;20183;-71
2022/06/12 01:24:38;;;;;;;9.63;5.20;;;17.30;99.90;;;;;;5049475;28;20196;-71
2022/06/12 01:27:49;;;;;;;7.20;5.55;;;17.40;99.90;;;;;;5048985;28;20200;-72
2022/06/12 01:30:27;;;;;;;7.75;5.20;;;17.10;99.90;;;;;;5033833;28;20267;-75
2022/06/12 01:33:03;;;;;;;9.68;5.68;;;17.20;99.90;;;;;;5050483;28;20476;-73
2022/06/12 01:35:51;;;;;;;9.88;5.60;;;17.10;99.90;;;;;;5036607;28;20196;-73
2022/06/12 01:38:34;;;;;;;6.93;5.07;;;17.30;99.90;;;;;;5036216;28;20489;-73
2022/06/12 01:41:32;;;;;;;6.55;4.82;;;17.20;99.90;;;;;;5036073;28;20505;-72
2022/06/12 01:44:17;;;;;;;7.35;5.10;;;17.00;99.90;;;;;;5034110;28;20624;-73
2022/06/12 01:47:06;;;;;;;10.07;4.82;;;16.90;99.90;;;;;;5036079;28;20176;-73
2022/06/12 01:49:57;;;;;;;6.07;5.07;;;16.90;99.90;;;;;;5036189;28;20177;-72
2022/06/12 01:52:31;;;;;;;6.13;4.88;;;16.60;99.90;;;;;;5036215;28;20158;-71
2022/06/12 01:55:12;;;;;;;8.43;5.68;;;16.70;99.90;;;;;;5035457;28;20202;-73
2022/06/12 01:57:45;;;;;;;6.60;5.20;;;16.80;99.90;;;;;;5035721;28;20230;-73
2022/06/12 02:00:21;;;;;;;6.85;4.97;;;16.80;99.90;;;;;;5036300;28;20161;-73
2022/06/12 02:02:58;;;;;;;7.03;5.13;;;16.90;99.90;;;;;;5036221;28;20176;-72
2022/06/12 02:05:30;;;;;;;5.97;5.22;;;16.80;99.90;;;;;;5035836;28;20594;-72
2022/06/12 02:08:08;;;;;;;6.75;5.43;;;16.80;99.90;;;;;;5035690;28;20161;-72
2022/06/12 02:13:56;;;;;;;7.68;5.28;;;16.80;99.90;;;;;;5033188;28;20223;-72
2022/06/12 02:16:28;;;;;;;5.22;4.53;;;16.90;99.90;;;;;;5035479;28;20227;-72
2022/06/12 02:19:02;;;;;;;6.90;4.68;;;17.00;99.90;;;;;;5035186;28;20161;-73
2022/06/12 02:21:37;;;;;;;6.60;4.50;;;16.80;99.90;;;;;;5035429;28;20165;-72
2022/06/12 02:24:06;;;;;;;5.53;4.23;;;16.60;99.90;;;;;;5035223;28;20169;-72
2022/06/12 02:26:37;;;;;;;8.50;4.47;;;16.80;99.90;;;;;;5035218;28;20176;-71
2022/06/12 02:29:13;;;;;;;5.28;4.35;;;16.70;99.90;;;;;;5035382;28;20184;-71
2022/06/12 02:31:43;;;;;;;8.43;4.70;;;16.70;99.90;;;;;;5035970;28;20520;-72
2022/06/12 02:34:13;;;;;;;5.43;4.47;;;16.90;99.90;;;;;;5035239;28;20225;-71
2022/06/12 02:36:45;;;;;;;6.37;4.63;;;16.50;99.90;;;;;;5034995;28;20176;-71
2022/06/12 02:39:17;;;;;;;6.90;4.60;;;16.50;99.90;;;;;;5033827;28;20169;-73
2022/06/12 02:41:48;;;;;;;5.90;4.60;;;16.70;99.90;;;;;;5031430;28;20608;-73
2022/06/12 02:44:24;;;;;;;7.07;4.47;;;16.60;99.90;;;;;;5035489;28;20177;-72
2022/06/12 02:46:57;;;;;;;5.95;4.40;;;16.30;99.90;;;;;;5034944;28;20172;-72
2022/06/12 02:49:23;;;;;;;5.63;4.80;;;16.20;99.90;;;;;;5035456;28;20173;-72
2022/06/12 02:51:53;;;;;;;5.67;4.33;;;16.10;99.90;;;;;;5035280;28;20165;-72
2022/06/12 02:54:32;;;;;;;6.97;4.40;;;16.10;99.90;;;;;;5034464;28;20199;-72
2022/06/12 02:57:03;;;;;;;11.07;4.27;;;16.20;99.90;;;;;;5034719;28;20171;-73
2022/06/12 02:59:29;;;;;;;6.40;4.90;;;16.20;99.90;;;;;;5034820;28;20623;-72
2022/06/12 03:02:26;;;;;;;5.90;4.23;;;16.00;99.90;;;;;;5035026;28;20259;-71
2022/06/12 03:05:02;;;;;;;5.00;4.50;;;16.00;99.90;;;;;;5023856;28;20232;-73
2022/06/12 03:07:30;;;;;;;9.47;4.73;;;16.10;99.90;;;;;;5031261;28;20235;-71
2022/06/12 03:10:02;;;;;;;5.13;4.23;;;16.00;99.90;;;;;;5034771;28;20246;-72
2022/06/12 03:12:28;;;;;;;5.43;4.40;;;16.10;99.90;;;;;;5035118;28;20498;-73
2022/06/12 03:14:55;;;;;;;5.60;4.53;;;16.20;99.90;;;;;;5031708;28;20204;-72
2022/06/12 03:17:22;;;;;;;7.23;4.40;;;16.20;99.90;;;;;;5039562;28;20510;-73
2022/06/12 03:19:51;;;;;;;6.27;4.10;;;16.10;99.90;;;;;;5046608;28;20180;-74
2022/06/12 03:22:49;;;;;;;8.17;4.90;;;16.10;99.90;;;;;;5042147;28;20169;-71
2022/06/12 03:25:28;;;;;;;6.43;4.60;;;16.10;99.90;;;;;;5042586;28;20176;-74
2022/06/12 03:28:07;;;;;;;6.10;4.47;;;16.10;99.90;;;;;;5042348;28;20161;-73
2022/06/12 03:30:43;;;;;;;5.38;4.35;;;16.20;99.90;;;;;;5042225;28;20214;-72
2022/06/12 03:33:15;;;;;;;4.63;4.15;;;16.10;99.90;;;;;;5039374;28;20165;-71
2022/06/12 03:35:50;;;;;;;5.17;4.43;;;16.20;99.90;;;;;;5039279;28;20209;-73
2022/06/12 03:38:37;;;;;;;4.47;3.90;;;16.40;99.90;;;;;;5040764;28;20282;-71
2022/06/12 03:41:27;;;;;;;4.70;4.20;;;16.40;99.90;;;;;;5044846;28;20169;-74
2022/06/12 03:44:15;;;;;;;5.20;4.30;;;16.50;99.90;;;;;;5043147;28;20157;-74
2022/06/12 03:47:09;;;;;;;6.30;4.13;;;16.40;99.90;;;;;;5044374;28;20169;-73
2022/06/12 03:50:01;;;;;;;7.13;3.90;;;16.40;99.90;;;;;;5046355;28;20168;-72
2022/06/12 03:52:28;;;;;;;13.55;4.32;;;16.50;99.90;;;;;;5033462;28;20192;-73
2022/06/12 03:55:06;;;;;;;4.72;4.15;;;16.50;99.90;;;;;;5034011;28;20726;-72
2022/06/12 03:57:53;;;;;;;6.22;4.30;;;16.40;99.90;;;;;;5014243;28;20173;-72
2022/06/12 04:00:41;;;;;;;5.23;4.07;;;16.30;99.90;;;;;;5013994;28;20165;-73
2022/06/12 04:03:13;;;;;;;5.57;4.20;;;16.20;99.90;;;;;;5013141;28;20630;-72
2022/06/12 04:05:53;;;;;;;5.10;4.00;;;16.20;99.90;;;;;;5013853;28;20166;-72
2022/06/12 04:08:27;;;;;;;4.73;4.00;;;16.20;99.90;;;;;;5014395;28;20193;-73
2022/06/12 04:10:55;;;;;;;4.90;4.40;;;16.30;99.90;;;;;;5013621;28;20166;-73
2022/06/12 04:13:22;;;;;;;4.23;3.83;;;16.40;99.90;;;;;;5012685;28;20602;-72
2022/06/12 04:15:58;;;;;;;5.43;4.30;;;16.50;99.90;;;;;;5012340;28;20185;-72
2022/06/12 04:18:25;;;;;;;5.53;4.15;;;16.60;99.90;;;;;;5014032;28;20253;-73
2022/06/12 04:20:57;;;;;;;4.73;4.13;;;16.60;99.90;;;;;;5013777;28;20228;-73
2022/06/12 04:23:23;;;;;;;5.78;4.18;;;16.60;99.90;;;;;;5012760;28;20265;-73
2022/06/12 04:25:59;;;;;;;6.80;4.38;;;16.80;99.90;;;;;;5013529;28;20249;-72
2022/06/12 04:28:41;;;;;;;5.40;4.50;;;16.70;99.90;;;;;;5012930;28;20505;-73
2022/06/12 04:31:12;;;;;;;4.93;4.43;;;16.60;99.90;;;;;;5013874;28;20167;-73
2022/06/12 04:33:57;;;;;;;5.32;4.72;;;16.80;99.90;;;;;;5013451;28;20547;-73
2022/06/12 04:36:23;;;;;;;9.02;4.40;;;17.00;99.90;;;;;;5014252;28;20208;-73
2022/06/12 04:38:48;;;;;;;8.88;4.88;;;17.30;99.90;;;;;;5015407;28;20510;-72
2022/06/12 04:41:35;;;;;;;4.80;4.10;;;17.50;99.90;;;;;;5019016;28;20161;-73
2022/06/12 04:44:02;;;;;;;3.78;3.47;;;17.50;99.90;;;;;;5018556;28;20201;-73
2022/06/12 04:46:28;;;;;;;8.13;4.22;;;17.60;99.90;;;;;;5018038;28;20270;-74
2022/06/12 04:48:55;;;;;;;5.55;3.88;;;17.80;99.90;;;;;;5016948;28;20194;-73
2022/06/12 04:51:21;;;;;;;6.70;4.18;;;17.80;99.90;;;;;;5015837;28;20169;-73
2022/06/12 04:53:48;;;;;;;4.93;3.72;;;17.80;99.90;;;;;;5015770;28;20240;-71
2022/06/12 04:56:16;;;;;;;8.98;3.92;;;17.90;99.90;;;;;;5016528;28;20172;-72
2022/06/12 04:58:42;;;;;;;6.88;4.13;;;17.90;99.90;;;;;;5013446;28;20173;-72
2022/06/12 05:01:08;;;;;;;6.00;4.10;;;17.80;99.90;;;;;;5014132;28;20601;-75
2022/06/12 05:03:35;;;;;;;6.93;3.83;;;17.70;99.90;;;;;;5013883;28;20328;-74
2022/06/12 05:06:01;;;;;;;5.32;3.90;;;17.90;99.90;;;;;;5016351;28;20178;-72
2022/06/12 05:08:27;;;;;;;5.38;3.83;;;18.00;99.90;;;;;;5018263;28;20162;-73
2022/06/12 05:10:53;;;;;;;3.63;3.25;;;18.10;99.90;;;;;;5020395;28;20169;-72
2022/06/12 05:13:19;;;;;;;5.60;3.60;;;18.20;99.90;;;;;;5021448;28;20654;-72
2022/06/12 05:15:46;;;;;;;4.65;3.40;;;18.30;99.90;;;;;;5023376;28;20209;-72
2022/06/12 05:18:14;;;;;;;6.05;3.83;;;18.50;99.90;;;;;;5021911;28;20169;-72
2022/06/12 05:20:40;;;;;;;3.88;3.45;;;18.70;99.90;;;;;;5023210;28;20168;-71
2022/06/12 05:23:06;;;;;;;5.57;3.53;;;18.80;99.90;;;;;;5018840;28;20166;-73
2022/06/12 05:25:32;;;;;;;6.40;3.28;;;18.70;99.90;;;;;;5019710;28;20166;-75
2022/06/12 05:28:00;;;;;;;3.50;3.20;;;18.90;99.90;;;;;;5020977;28;20194;-73
2022/06/12 05:30:28;;;;;;;4.68;3.25;;;18.90;99.90;;;;;;5022523;28;20177;-71
2022/06/12 05:32:55;;;;;;;5.10;3.25;;;18.90;99.90;;;;;;5017575;28;20153;-72
2022/06/12 05:35:22;;;;;;;3.95;3.22;;;19.00;99.90;;;;;;5016763;28;20209;-72
2022/06/12 05:37:50;;;;;;;3.38;3.08;;;19.10;99.90;;;;;;5016889;28;20158;-72
2022/06/12 05:40:21;;;;;;;4.85;3.47;;;19.10;99.90;;;;;;5016043;28;20484;-72
2022/06/12 05:42:47;;;;;;;7.32;3.67;;;19.10;99.90;;;;;;5016139;28;20220;-72
2022/06/12 05:45:16;;;;;;;5.40;3.25;;;19.10;99.90;;;;;;5015665;28;20161;-74
2022/06/12 05:47:53;;;;;;;5.05;3.10;;;19.10;99.90;;;;;;5015780;28;20509;-73
2022/06/12 05:50:21;;;;;;;5.05;3.50;;;19.20;99.90;;;;;;5015511;28;20568;-73
2022/06/12 05:52:47;;;;;;;5.00;3.75;;;19.20;99.90;;;;;;5015761;28;20169;-72
2022/06/12 05:55:13;;;;;;;3.60;3.20;;;19.20;99.90;;;;;;5015869;28;20201;-72
2022/06/12 05:57:39;;;;;;;9.18;3.15;;;19.20;99.90;;;;;;5015966;28;20162;-73
2022/06/12 06:00:08;;;;;;;7.22;3.22;;;19.30;99.90;;;;;;5014051;28;20531;-72
2022/06/12 06:02:34;;;;;;;3.22;2.92;;;19.50;99.90;;;;;;5015404;28;20221;-72
2022/06/12 06:05:00;;;;;;;4.40;2.55;;;19.70;99.90;;;;;;5016540;28;20248;-72
2022/06/12 06:07:26;;;;;;;3.45;2.90;;;19.80;99.90;;;;;;5015922;28;20169;-71
2022/06/12 06:09:52;;;;;;;4.57;3.28;;;19.80;99.90;;;;;;5015732;28;20606;-72
2022/06/12 06:12:18;;;;;;;6.65;3.00;;;19.90;99.90;;;;;;5015447;28;20249;-71
2022/06/12 06:14:43;;;;;;;4.07;2.40;;;19.90;99.90;;;;;;5015387;28;20201;-71
2022/06/12 06:17:09;;;;;;;4.95;2.78;;;20.00;99.90;;;;;;5015157;28;20158;-72
2022/06/12 06:19:35;;;;;;;4.30;2.88;;;19.90;99.90;;;;;;5015662;28;20164;-73
2022/06/12 06:22:01;;;;;;;4.22;3.13;;;19.70;99.90;;;;;;5015467;28;20245;-72
2022/06/12 06:24:27;;;;;;;4.68;2.67;;;19.70;99.90;;;;;;5015357;28;20197;-72
2022/06/12 06:26:52;;;;;;;3.72;2.90;;;19.90;99.90;;;;;;5015087;28;20562;-73
2022/06/12 06:29:18;;;;;;;5.07;2.70;;;20.00;99.90;;;;;;5015126;28;20166;-71
2022/06/12 06:31:43;;;;;;;4.70;3.20;;;20.20;99.90;;;;;;5015347;28;20170;-72
2022/06/12 06:34:09;;;;;;;6.97;3.17;;;20.50;99.90;;;;;;5015198;28;20236;-72
2022/06/12 06:36:35;;;;;;;3.60;2.90;;;20.60;99.90;;;;;;5015072;28;20197;-72
2022/06/12 06:39:01;;;;;;;3.35;3.10;;;20.60;99.90;;;;;;5014981;28;20205;-72
2022/06/12 06:41:28;;;;;;;4.00;2.70;;;20.70;99.90;;;;;;5014782;28;20181;-73
2022/06/12 06:46:38;;;;;;;3.35;2.80;;;20.70;99.90;;;;;;5017419;28;20200;-71
2022/06/12 06:49:04;;;;;;;2.97;2.60;;;20.60;99.90;;;;;;5018433;28;20196;-71
2022/06/12 06:51:30;;;;;;;3.90;2.80;;;20.70;99.90;;;;;;5020664;28;20452;-73
2022/06/12 06:53:57;;;;;;;4.05;3.13;;;20.70;99.90;;;;;;5025863;28;20201;-74
2022/06/12 06:56:23;;;;;;;3.95;2.83;;;20.90;99.90;;;;;;5031117;28;20209;-71
2022/06/12 06:58:49;;;;;;;6.60;3.30;;;21.00;99.90;;;;;;5045161;28;20157;-73
2022/06/12 07:01:15;;;;;;;4.95;3.45;;;21.40;99.90;;;;;;5044984;28;20181;-73
2022/06/12 07:03:40;;;;;;;7.05;3.60;;;21.50;99.90;;;;;;5045701;28;20243;-75
2022/06/12 07:06:06;;;;;;;6.07;3.38;;;21.60;99.90;;;;;;5040797;28;20669;-75
2022/06/12 07:08:31;;;;;;;4.93;3.08;;;21.60;99.90;;;;;;5042070;28;20161;-71
2022/06/12 07:10:57;;;;;;;3.30;3.00;;;21.60;99.90;;;;;;5041039;28;20185;-72
2022/06/12 07:13:24;;;;;;;3.25;2.88;;;21.70;99.90;;;;;;5038748;28;20215;-70
2022/06/12 07:15:50;;;;;;;3.60;2.88;;;21.80;99.90;;;;;;5035882;28;20645;-72
2022/06/12 07:18:18;;;;;;;4.88;2.88;;;21.80;99.90;;;;;;5036405;28;20157;-72
2022/06/12 07:20:49;;;;;;;3.15;2.72;;;21.80;99.90;;;;;;5036851;28;20153;-72
2022/06/12 07:23:17;;;;;;;6.22;2.80;;;21.90;99.90;;;;;;5034238;28;20165;-72
2022/06/12 07:25:50;;;;;;;3.30;3.00;;;22.00;99.90;;;;;;5033962;28;20164;-73
2022/06/12 07:28:17;;;;;;;3.78;2.83;;;22.10;99.90;;;;;;5033019;28;20160;-72
2022/06/12 07:30:42;;;;;;;4.13;3.33;;;22.20;99.90;;;;;;5034119;28;20200;-72
2022/06/12 07:33:08;;;;;;;3.28;2.97;;;22.00;99.90;;;;;;5034360;28;20576;-73
2022/06/12 07:35:36;;;;;;;3.70;2.90;;;22.10;99.90;;;;;;5033150;28;20590;-72
2022/06/12 07:38:03;;;;;;;3.88;3.35;;;22.00;99.90;;;;;;5033510;28;20498;-71
2022/06/12 07:40:35;;;;;;;3.50;3.20;;;22.10;99.90;;;;;;5033536;28;20193;-72
2022/06/12 07:43:01;;;;;;;3.50;2.78;;;22.50;99.90;;;;;;5033917;28;20169;-72
2022/06/12 07:45:26;;;;;;;5.88;4.32;;;22.70;99.90;;;;;;5033513;28;20256;-72
2022/06/12 07:47:52;;;;;;;4.63;3.28;;;22.90;99.90;;;;;;5033466;28;20616;-72
2022/06/12 07:50:18;;;;;;;4.50;3.38;;;23.00;99.90;;;;;;5031873;28;20169;-72
2022/06/12 07:52:44;;;;;;;4.82;3.20;;;23.40;99.90;;;;;;5032373;28;20207;-73
2022/06/12 07:55:12;;;;;;;4.75;2.97;;;23.70;99.90;;;;;;5033136;28;20541;-72
2022/06/12 07:57:39;;;;;;;5.70;3.08;;;23.70;99.90;;;;;;5033884;28;20169;-73
2022/06/12 08:00:08;;;;;;;4.15;2.90;;;23.80;99.90;;;;;;5034432;28;20165;-71
2022/06/12 08:02:33;;;;;;;6.07;3.10;;;23.70;99.90;;;;;;5034798;28;20184;-72
2022/06/12 08:04:59;;;;;;;3.00;2.80;;;23.70;99.90;;;;;;5033397;28;20239;-73
2022/06/12 08:07:25;;;;;;;3.22;2.92;;;23.90;99.90;;;;;;5033128;28;20626;-73
2022/06/12 08:09:50;;;;;;;4.05;3.05;;;24.20;99.90;;;;;;5032885;28;20169;-72
2022/06/12 08:12:16;;;;;;;5.93;2.97;;;24.20;99.90;;;;;;5032556;28;20207;-73
2022/06/12 08:14:42;;;;;;;4.55;3.22;;;24.20;99.90;;;;;;5032643;28;20342;-72
2022/06/12 08:17:07;;;;;;;4.28;2.85;;;24.40;99.90;;;;;;5032788;28;20179;-74
2022/06/12 08:22:17;;;;;;;5.95;2.80;;;24.60;99.90;;;;;;5032368;28;20159;-72
2022/06/12 08:24:43;;;;;;;3.95;3.05;;;24.80;99.90;;;;;;5032326;28;20243;-74
2022/06/12 08:27:09;;;;;;;6.38;3.00;;;25.20;99.90;;;;;;5032791;28;20168;-72
2022/06/12 08:29:36;;;;;;;4.38;2.40;;;25.70;99.90;;;;;;5032670;28;20257;-71
2022/06/12 08:32:06;;;;;;;3.00;2.30;;;25.80;99.90;;;;;;5032947;28;20161;-72
2022/06/12 08:34:38;;;;;;;3.28;2.50;;;25.90;99.90;;;;;;5032714;28;20291;-72
2022/06/12 08:37:12;;;;;;;2.60;2.40;;;26.20;99.90;;;;;;5033210;28;20185;-73
2022/06/12 08:39:38;;;;;;;3.60;2.67;;;26.30;99.50;;;;;;5034377;28;20168;-72
2022/06/12 08:42:50;;;;;;;3.15;2.47;;;26.00;99.60;;;;;;5039648;28;20184;-72
2022/06/12 08:45:20;;;;;;;2.33;2.00;;;26.00;98.30;;;;;;5040249;28;20189;-72
2022/06/12 08:47:55;;;;;;;5.22;2.25;;;25.80;97.20;;;;;;5037954;28;20188;-72
2022/06/12 08:50:29;;;;;;;2.33;2.13;;;25.80;97.90;;;;;;5036896;28;20160;-71
2022/06/12 08:52:58;;;;;;;2.95;2.58;;;26.00;96.90;;;;;;5035839;28;20190;-73
2022/06/12 08:55:38;;;;;;;3.75;2.30;;;26.00;96.60;;;;;;5036148;28;20498;-72
2022/06/12 08:58:16;;;;;;;3.70;2.20;;;26.10;95.80;;;;;;5036058;28;20565;-73
2022/06/12 09:00:44;;;;;;;3.53;2.53;;;26.10;95.90;;;;;;5036108;28;20161;-73
2022/06/12 09:03:15;;;;;;;4.63;2.15;;;26.20;96.90;;;;;;5035762;28;20276;-72
2022/06/12 09:05:52;;;;;;;4.13;2.72;;;26.20;95.30;;;;;;5034477;28;20181;-71
2022/06/12 09:08:21;;;;;;;2.33;2.03;;;26.00;95.30;;;;;;5035972;28;20216;-71
2022/06/12 09:10:55;;;;;;;2.10;1.90;;;26.10;97.30;;;;;;5035615;28;20240;-72
2022/06/12 09:13:29;;;;;;;4.68;2.13;;;26.00;94.00;;;;;;5035956;28;20582;-73
2022/06/12 09:16:20;;;;;;;2.03;1.80;;;25.90;94.00;;;;;;5034123;28;20216;-72
2022/06/12 09:19:06;;;;;;;2.65;2.40;;;25.80;93.00;;;;;;5035919;28;20207;-71
2022/06/12 09:21:44;;;;;;;5.97;4.32;;;25.90;93.40;;;;;;5036239;28;20165;-73
2022/06/12 09:24:44;;;;;;;7.00;3.25;;;26.30;92.80;;;;;;5035354;28;20187;-72
2022/06/12 09:27:22;;;;;;;3.15;2.35;;;26.60;91.60;;;;;;5031268;28;20240;-73
2022/06/12 09:30:05;;;;;;;3.75;2.38;;;26.80;90.70;;;;;;5034073;28;20675;-71
2022/06/12 09:33:01;;;;;;;2.63;1.88;;;27.10;88.80;;;;;;5034034;28;20168;-72
2022/06/12 09:35:52;;;;;;;2.55;1.85;;;27.30;87.00;;;;;;5034205;28;20231;-72
2022/06/12 09:38:24;;;;;;;4.57;2.42;;;27.60;84.80;;;;;;5028808;28;20538;-73
2022/06/12 09:41:07;;;;;;;2.50;1.70;;;27.60;80.20;;;;;;5035207;28;20655;-71
2022/06/12 09:44:10;;;;;;;1.73;1.60;;;27.60;76.20;;;;;;5035954;28;20172;-72
2022/06/12 09:46:47;;;;;;;1.83;1.60;;;27.60;73.20;;;;;;5035224;28;20169;-72
2022/06/12 09:49:22;;;;;;;4.90;1.92;;;27.80;72.70;;;;;;5034868;28;20168;-72
2022/06/12 09:52:09;;;;;;;2.67;2.20;;;27.90;72.70;;;;;;5034212;28;20306;-72
2022/06/12 09:54:43;;;;;;;3.88;1.92;;;27.80;72.50;;;;;;5033925;28;20236;-70
2022/06/12 09:57:32;;;;;;;2.60;2.00;;;27.80;69.90;;;;;;5035419;28;20171;-72
2022/06/12 10:00:06;;;;;;;2.58;2.10;;;27.80;70.80;;;;;;5035813;28;20573;-71
2022/06/12 10:02:51;;;;;;;2.97;1.95;;;28.00;70.30;;;;;;5035337;28;20290;-70
2022/06/12 10:05:28;;;;;;;2.60;1.80;;;28.00;72.30;;;;;;5034597;28;20228;-72
2022/06/12 10:08:02;;;;;;;2.95;1.83;;;28.00;70.70;;;;;;5034366;28;20203;-69
2022/06/12 10:10:39;;;;;;;3.78;1.80;;;28.10;70.50;;;;;;5033965;28;20165;-71
2022/06/12 10:13:11;;;;;;;2.80;2.05;;;28.30;68.70;;;;;;5034298;28;20200;-70
2022/06/12 10:15:51;;;;;;;2.97;1.90;;;28.00;69.30;;;;;;5034893;28;20204;-70
2022/06/12 10:18:27;;;;;;;2.13;1.90;;;28.10;68.60;;;;;;5034800;28;20157;-71
2022/06/12 10:21:00;;;;;;;2.15;1.70;;;28.30;68.10;;;;;;5034383;28;20157;-71
2022/06/12 10:23:25;;;;;;;1.75;1.60;;;28.30;66.10;;;;;;5034805;28;20209;-71
2022/06/12 10:25:55;;;;;;;2.65;1.42;;;28.20;66.70;;;;;;5034766;28;20557;-70
2022/06/12 10:28:23;;;;;;;3.30;1.80;;;28.50;65.20;;;;;;5034894;28;20176;-71
2022/06/12 10:31:16;;;;;;;1.67;1.58;;;28.50;64.90;;;;;;5034751;28;20180;-71
2022/06/12 10:33:42;;;;;;;2.28;1.60;;;28.40;63.40;;;;;;5034244;28;20180;-70
2022/06/12 10:36:30;;;;;;;2.80;1.88;;;28.20;62.80;;;;;;5035247;28;20241;-73
2022/06/12 10:39:16;;;;;;;2.88;2.00;;;28.40;64.60;;;;;;5035669;28;20613;-71
2022/06/12 10:41:57;;;;;;;2.47;1.80;;;28.90;64.70;;;;;;5037896;28;20153;-70
2022/06/12 10:44:43;;;;;;;5.50;1.80;;;29.00;62.10;;;;;;5036310;28;20216;-71
2022/06/12 10:47:29;;;;;;;3.72;1.85;;;29.30;63.00;;;;;;5034545;28;20157;-72
2022/06/12 10:50:01;;;;;;;2.10;1.70;;;29.10;63.00;;;;;;5034715;28;20176;-69
2022/06/12 10:52:26;;;;;;;2.42;2.10;;;29.00;62.00;;;;;;5035141;28;20183;-72
2022/06/12 10:54:52;;;;;;;2.28;1.90;;;28.50;64.40;;;;;;5034711;28;20236;-71
2022/06/12 10:57:51;;;;;;;2.60;1.80;;;28.80;64.70;;;;;;5033908;28;20169;-69
2022/06/12 11:00:24;;;;;;;3.38;2.00;;;29.00;65.10;;;;;;5035428;28;20244;-71
2022/06/12 11:03:14;;;;;;;3.97;2.00;;;29.00;65.70;;;;;;5020934;28;20632;-72
2022/06/12 11:05:46;;;;;;;3.03;2.00;;;29.10;64.80;;;;;;5025237;28;20614;-71
2022/06/12 11:08:20;;;;;;;4.68;2.22;;;28.70;66.30;;;;;;5022185;28;20347;-71
2022/06/12 11:10:58;;;;;;;3.45;2.10;;;29.00;67.60;;;;;;5015674;28;20180;-71
2022/06/12 11:13:42;;;;;;;6.05;1.88;;;29.00;65.10;;;;;;5014907;28;20168;-69
2022/06/12 11:16:15;;;;;;;4.63;2.05;;;28.80;65.00;;;;;;5014702;28;20611;-71
2022/06/12 11:19:03;;;;;;;4.57;1.98;;;28.60;65.80;;;;;;5014166;28;20161;-70
2022/06/12 11:21:56;;;;;;;2.25;2.03;;;28.60;67.00;;;;;;5014408;28;20602;-69
2022/06/12 11:24:33;;;;;;;2.10;1.88;;;28.90;65.10;;;;;;5014386;28;20166;-73
2022/06/12 11:27:11;;;;;;;5.97;2.20;;;29.20;64.00;;;;;;5014662;28;20165;-69
2022/06/12 11:30:05;;;;;;;2.72;2.00;;;28.90;66.40;;;;;;5014645;28;20322;-71
2022/06/12 11:32:48;;;;;;;2.00;1.80;;;28.90;65.30;;;;;;5014555;28;20216;-70
2022/06/12 11:35:33;;;;;;;1.95;1.80;;;28.80;65.00;;;;;;5014279;28;20201;-70
2022/06/12 11:38:12;;;;;;;3.10;2.53;;;28.70;66.20;;;;;;5014378;28;20181;-71
2022/06/12 11:40:55;;;;;;;7.05;2.45;;;28.60;68.00;;;;;;5013854;28;20605;-70
2022/06/12 11:43:38;;;;;;;3.40;2.30;;;28.60;68.30;;;;;;5014007;28;20219;-71
2022/06/12 11:46:09;;;;;;;8.68;2.38;;;28.80;68.50;;;;;;5014531;28;20157;-70
2022/06/12 11:49:01;;;;;;;8.35;2.97;;;28.70;68.10;;;;;;5014165;28;20584;-72
2022/06/12 11:51:50;;;;;;;2.85;2.38;;;28.90;69.20;;;;;;5015176;28;20176;-71
2022/06/12 11:54:34;;;;;;;2.38;2.10;;;29.10;66.20;;;;;;5031924;28;20227;-72
2022/06/12 11:57:32;;;;;;;2.40;2.20;;;29.10;67.80;;;;;;5017071;28;20165;-69
2022/06/12 12:00:15;;;;;;;3.80;2.22;;;28.90;68.00;;;;;;5017409;28;20225;-71
2022/06/12 12:03:03;;;;;;;2.50;2.25;;;28.90;68.20;;;;;;5016250;28;20177;-72
2022/06/12 12:05:46;;;;;;;2.63;2.33;;;28.60;69.40;;;;;;5013768;28;20597;-71
2022/06/12 12:08:57;;;;;;;5.43;2.45;;;28.70;69.00;;;;;;5014646;28;20161;-71
2022/06/12 12:11:29;;;;;;;4.00;2.92;;;28.90;69.20;;;;;;5008601;28;20193;-72
2022/06/12 12:13:58;;;;;;;3.45;2.25;;;28.80;69.50;;;;;;5012257;28;20456;-70
2022/06/12 12:16:46;;;;;;;2.70;2.42;;;28.90;69.70;;;;;;5013515;28;20629;-71
2022/06/12 12:19:38;;;;;;;4.72;3.13;;;29.30;70.60;;;;;;5014054;28;20597;-70
2022/06/12 12:22:36;;;;;;;4.35;2.83;;;29.10;69.00;;;;;;5013910;28;20185;-70
2022/06/12 12:25:20;;;;;;;3.67;2.70;;;29.00;69.70;;;;;;5009022;28;20228;-70
2022/06/12 12:27:50;;;;;;;6.47;2.83;;;28.50;70.80;;;;;;5013569;28;20208;-69
2022/06/12 12:30:25;;;;;;;2.35;2.13;;;28.50;70.00;;;;;;5013158;28;20215;-71
2022/06/12 12:32:54;;;;;;;8.23;2.85;;;28.70;70.80;;;;;;5012692;28;20506;-69
2022/06/12 12:41:13;;;;;;;3.55;2.30;;;29.50;69.70;;;;;;5012921;28;20173;-70
2022/06/12 12:43:55;;;;;;;4.03;2.80;;;29.20;68.40;;;;;;5013732;28;20225;-71
2022/06/12 12:46:24;;;;;;;9.02;3.22;;;29.20;68.20;;;;;;5015413;28;20220;-71
2022/06/12 12:48:55;;;;;;;8.05;2.60;;;29.10;69.90;;;;;;5021888;28;20166;-72
2022/06/12 12:51:30;;;;;;;3.20;2.40;;;29.10;70.10;;;;;;5022446;28;20520;-71
2022/06/12 12:54:06;;;;;;;3.33;2.22;;;29.20;68.80;;;;;;5020262;28;20165;-71
2022/06/12 12:56:34;;;;;;;4.57;2.50;;;28.90;69.50;;;;;;5019168;28;20166;-71
2022/06/12 12:59:05;;;;;;;2.55;2.30;;;28.90;70.90;;;;;;5022992;28;20166;-72
2022/06/12 13:01:41;;;;;;;3.28;2.40;;;28.90;70.00;;;;;;5023472;28;20177;-72
2022/06/12 13:04:18;;;;;;;2.20;1.95;;;28.90;68.60;;;;;;5021808;28;20224;-72
2022/06/12 13:07:11;;;;;;;3.15;2.78;;;28.80;69.60;;;;;;5021336;28;20176;-71
2022/06/12 13:10:10;;;;;;;4.63;4.00;;;28.90;69.20;;;;;;5026705;28;20169;-73
2022/06/12 13:12:57;;;;;;;3.08;2.53;;;29.10;69.30;;;;;;5025784;28;20166;-72
2022/06/12 13:16:11;;;;;;;2.78;2.10;;;29.30;69.50;;;;;;5021505;28;20205;-71
2022/06/12 13:18:54;;;;;;;5.28;1.90;;;29.10;68.70;;;;;;5004701;28;20182;-71
2022/06/12 13:21:30;;;;;;;4.05;1.98;;;29.10;69.30;;;;;;5013684;28;20264;-73
2022/06/12 13:23:55;;;;;;;2.70;2.42;;;29.20;69.40;;;;;;5012791;28;20168;-69
2022/06/12 13:26:23;;;;;;;7.30;2.50;;;28.90;68.70;;;;;;5012915;28;20186;-71
2022/06/12 13:29:02;;;;;;;2.78;2.25;;;29.20;68.90;;;;;;5016401;28;20244;-71
2022/06/12 13:31:33;;;;;;;2.28;1.98;;;28.80;69.10;;;;;;5015677;28;20219;-70
2022/06/12 13:33:59;;;;;;;3.85;2.65;;;28.90;69.00;;;;;;5016265;28;20249;-71
2022/06/12 13:36:41;;;;;;;9.27;7.20;;;29.00;69.60;;;;;;5015807;28;20162;-70
2022/06/12 13:39:32;;;;;;;4.00;3.08;;;29.40;68.50;;;;;;5016572;28;20642;-72